»·PEaware :: AAL1658 KDFW-KORD

AAL1658 :: KDFW-KORD

FLIGHT INFORMATION

Flight Status: Arrived
Operator:
American Airlines
More flights by this operator :: More flights under this callsign
Pilot: Drew Leevy (13237)
Aircraft: MCDONNELL-DOUGLAS MD-83
(MD83)
More flights by this aircraft type
Origin: KDFW Dallas-Ft Worth Intl
United States
Destination: KORD Chicago-O'Hare Intl
United States
More flights between these airports :: More routes between these airports
Route: TEX5 OKM J181 EOS J181 TRTLL4
File this flight plan on PilotEdge
Remarks:
Altitude:
(Current/Filed)
32,000ft
Speed:
(Current/Filed)
115kts
Departed: 10-Mar-17 07:06 PM
Arrived: 10-Mar-17 08:50 PM
Distance/Time
Traveled:
696nm/1:44
Distance/Time
To Go:
Arrived

Flight Plot

Page will automatically refresh every two minutes.

Flight plan parsing failed; only flown route is shown


Map Options




Map Legend


Flown Route
Filed Route
Departure Airport
Arrival Airport
Navaid (VOR, NDB)
Fix

Horizontal Profiles

Position Reports

Time Latitude Longitude Heading Altitude Ground
Speed
10-Mar-17 18:57 32.900370 -97.046423 213 603ft 4kts
10-Mar-17 18:58 32.897845 -97.047697 179 602ft 9kts
10-Mar-17 18:59 32.896623 -97.047695 179 600ft 0kts
10-Mar-17 19:00 32.894422 -97.047741 181 594ft 13kts
10-Mar-17 19:01 32.889475 -97.047737 180 582ft 25kts
10-Mar-17 19:02 32.885043 -97.047657 102 574ft 1kts
10-Mar-17 19:03 32.885063 -97.040799 89 564ft 20kts
10-Mar-17 19:04 32.885033 -97.035108 90 570ft 13kts
10-Mar-17 19:05 32.883365 -97.032119 180 567ft 17kts
10-Mar-17 19:06 32.880465 -97.031003 91 564ft 12kts
10-Mar-17 19:07 32.896800 -97.030004 0 579ft 167kts
10-Mar-17 19:08 32.948535 -97.033520 356 3122ft 195kts
10-Mar-17 19:09 33.003604 -97.026512 12 5647ft 219kts
10-Mar-17 19:10 33.071092 -97.015524 10 7956ft 272kts
10-Mar-17 19:11 33.147977 -97.004502 9 10655ft 277kts
10-Mar-17 19:12 33.227765 -96.993242 10 13270ft 308kts
10-Mar-17 19:13 33.316392 -96.980293 4 15470ft 340kts
10-Mar-17 19:14 33.415055 -96.966506 2 17397ft 364kts
10-Mar-17 19:15 33.511820 -96.937584 13 19402ft 367kts
10-Mar-17 19:16 33.610143 -96.899213 13 21608ft 380kts
10-Mar-17 19:17 33.711257 -96.859920 12 23766ft 384kts
10-Mar-17 19:18 33.814179 -96.819479 12 25361ft 398kts
10-Mar-17 19:19 33.921220 -96.777282 12 26630ft 417kts
10-Mar-17 19:20 34.033608 -96.732841 12 27829ft 435kts
10-Mar-17 19:21 34.149785 -96.686767 11 29021ft 449kts
10-Mar-17 19:22 34.269385 -96.639196 11 30214ft 459kts
10-Mar-17 19:23 34.388946 -96.581364 17 31415ft 470kts
10-Mar-17 19:24 34.508924 -96.516641 17 32214ft 484kts
10-Mar-17 19:25 34.634964 -96.448364 17 32212ft 508kts
10-Mar-17 19:26 34.762867 -96.378831 17 32210ft 503kts
10-Mar-17 19:27 34.889977 -96.309517 17 32212ft 503kts
10-Mar-17 19:28 35.017455 -96.239755 17 32214ft 503kts
10-Mar-17 19:29 35.144402 -96.170056 17 32215ft 503kts
10-Mar-17 19:30 35.271694 -96.099915 17 32243ft 502kts
10-Mar-17 19:31 35.398522 -96.029802 17 32246ft 502kts
10-Mar-17 19:32 35.525333 -95.959444 16 32247ft 501kts
10-Mar-17 19:33 35.652108 -95.888961 17 32232ft 502kts
10-Mar-17 19:34 35.763548 -95.782233 38 32243ft 520kts
10-Mar-17 19:35 35.867392 -95.658442 39 32235ft 521kts
10-Mar-17 19:36 35.971269 -95.534021 38 32288ft 520kts
10-Mar-17 19:37 36.074612 -95.409756 38 32293ft 521kts
10-Mar-17 19:38 36.178221 -95.284692 38 32247ft 520kts
10-Mar-17 19:39 36.281466 -95.159573 38 32297ft 521kts
10-Mar-17 19:40 36.384430 -95.034324 38 32300ft 521kts
10-Mar-17 19:41 36.487674 -94.908219 38 32302ft 521kts
10-Mar-17 19:42 36.590801 -94.782366 38 32285ft 522kts
10-Mar-17 19:43 36.693559 -94.655872 38 32287ft 521kts
10-Mar-17 19:44 36.796382 -94.528795 38 32290ft 521kts
10-Mar-17 19:45 36.898959 -94.401503 38 32292ft 521kts
10-Mar-17 19:46 37.001172 -94.274162 38 32295ft 521kts
10-Mar-17 19:47 37.099712 -94.150714 32 32295ft 487kts
10-Mar-17 19:48 37.196114 -94.029847 32 32294ft 489kts
10-Mar-17 19:49 37.292153 -93.908807 32 32327ft 490kts
10-Mar-17 19:50 37.372248 -93.808076 33 32308ft 491kts
10-Mar-17 19:51 37.484042 -93.666160 33 32309ft 491kts
10-Mar-17 19:52 37.579635 -93.544270 33 32320ft 491kts
10-Mar-17 19:53 37.675539 -93.421502 33 32323ft 491kts
10-Mar-17 19:54 37.770857 -93.299010 33 32378ft 491kts
10-Mar-17 19:55 37.850394 -93.196427 33 32380ft 491kts
10-Mar-17 19:56 37.961612 -93.052421 33 32382ft 491kts
10-Mar-17 19:57 38.040669 -92.949655 33 32407ft 491kts
10-Mar-17 19:58 38.146781 -92.811781 33 32391ft 493kts
10-Mar-17 19:59 38.226288 -92.707674 33 32392ft 493kts
10-Mar-17 20:00 38.337377 -92.561483 33 32408ft 494kts
10-Mar-17 20:01 38.417353 -92.455943 33 32422ft 497kts
10-Mar-17 20:02 38.528671 -92.308338 33 32425ft 497kts
10-Mar-17 20:03 38.608191 -92.202461 33 32436ft 497kts
10-Mar-17 20:04 38.719446 -92.053722 33 32438ft 497kts
10-Mar-17 20:05 38.798901 -91.947057 33 32440ft 497kts
10-Mar-17 20:06 38.910014 -91.797916 34 32421ft 498kts
10-Mar-17 20:07 38.989049 -91.690968 34 32422ft 498kts
10-Mar-17 20:08 39.084257 -91.561601 34 32424ft 498kts
10-Mar-17 20:09 39.179058 -91.432244 34 32426ft 498kts
10-Mar-17 20:10 39.273450 -91.302903 34 32454ft 498kts
10-Mar-17 20:11 39.368045 -91.172733 34 32456ft 498kts
10-Mar-17 20:12 39.462601 -91.042070 34 32458ft 498kts
10-Mar-17 20:13 39.556577 -90.910935 39 32448ft 506kts
10-Mar-17 20:14 39.644055 -90.768238 39 32451ft 507kts
10-Mar-17 20:15 39.732532 -90.626163 39 32453ft 507kts
10-Mar-17 20:16 39.818512 -90.487494 39 32455ft 507kts
10-Mar-17 20:17 39.906740 -90.344562 39 32457ft 507kts
10-Mar-17 20:18 40.000626 -90.212885 27 32463ft 487kts
10-Mar-17 20:19 40.102687 -90.097885 27 32460ft 486kts
10-Mar-17 20:20 40.204643 -89.982870 27 32462ft 486kts
10-Mar-17 20:21 40.306855 -89.867430 27 32446ft 486kts
10-Mar-17 20:22 40.408913 -89.751385 28 32444ft 487kts
10-Mar-17 20:23 40.510482 -89.635364 28 30803ft 478kts
10-Mar-17 20:24 40.607906 -89.523606 28 28798ft 461kts
10-Mar-17 20:25 40.702522 -89.414661 28 26814ft 445kts
10-Mar-17 20:26 40.793232 -89.307692 30 24834ft 430kts
10-Mar-17 20:27 40.880126 -89.203959 30 22866ft 414kts
10-Mar-17 20:28 40.963534 -89.104064 30 20902ft 398kts
10-Mar-17 20:29 41.043711 -89.007704 31 18936ft 383kts
10-Mar-17 20:30 41.120443 -88.915187 32 16978ft 368kts
10-Mar-17 20:31 41.190917 -88.830569 33 15061ft 355kts
10-Mar-17 20:32 41.262330 -88.743704 34 13028ft 342kts
10-Mar-17 20:33 41.331152 -88.659974 36 11002ft 330kts
10-Mar-17 20:34 41.396952 -88.580461 35 10452ft 317kts
10-Mar-17 20:35 41.462654 -88.502366 35 10451ft 317kts
10-Mar-17 20:36 41.528520 -88.423901 35 10451ft 317kts
10-Mar-17 20:37 41.572757 -88.323858 57 10442ft 298kts
10-Mar-17 20:38 41.610129 -88.226109 56 10436ft 296kts
10-Mar-17 20:39 41.648117 -88.128428 55 10457ft 296kts
10-Mar-17 20:40 41.686043 -88.030743 55 10457ft 296kts
10-Mar-17 20:41 41.710489 -87.925285 72 9877ft 296kts
10-Mar-17 20:42 41.724312 -87.819136 78 8678ft 287kts
10-Mar-17 20:43 41.754660 -87.733692 26 7667ft 239kts
10-Mar-17 20:44 41.814942 -87.716026 358 6901ft 224kts
10-Mar-17 20:45 41.874762 -87.712781 358 5178ft 218kts
10-Mar-17 20:46 41.934813 -87.716167 358 3437ft 205kts
10-Mar-17 20:47 41.976034 -87.748120 279 2159ft 164kts
10-Mar-17 20:48 41.969016 -87.799451 275 1640ft 151kts
10-Mar-17 20:49 41.969136 -87.828832 274 1291ft 146kts
10-Mar-17 20:50 41.969058 -87.870974 273 809ft 153kts
10-Mar-17 20:51 41.969235 -87.906124 289 664ft 23kts
10-Mar-17 20:52 41.972284 -87.910468 333 666ft 13kts
10-Mar-17 20:53 41.971467 -87.906327 94 665ft 21kts
10-Mar-17 20:54 41.971379 -87.900365 89 659ft 12kts
10-Mar-17 20:55 41.973068 -87.898560 327 656ft 6kts
10-Mar-17 20:56 41.973592 -87.899800 278 656ft 0kts

Navigation Log

Ident Type
Flight plan parsing failed, navigation log unavailable